Time;durP1;ratioP1;P1;durP2;ratioP2;P2;SDS_P1;SDS_P2;PMS_P1;PMS_P2;Temp;Humidity;BMP_temperature;BMP_pressure;BME280_temperature;BME280_humidity;BME280_pressure;Samples;Min_cycle;Max_cycle;Signal;HPM_P1;HPM_P2
2022/05/17 00:00:34;;;;;;;;;;;;;;;14.54;75.59;101072.94;6207609;22;19969;-84
2022/05/17 00:03:02;;;;;;;;;;;;;;;14.56;75.19;101068.22;6207761;23;19943;-82
2022/05/17 00:05:27;;;;;;;;;;;;;;;14.51;75.36;101062.44;6208328;23;20015;-82
2022/05/17 00:07:53;;;;;;;;;;;;;;;14.50;75.73;101060.75;6209347;23;19946;-82
2022/05/17 00:10:19;;;;;;;;;;;;;;;14.37;76.47;101071.28;6208795;23;19930;-84
2022/05/17 00:12:44;;;;;;;;;;;;;;;14.46;76.62;101064.81;6185147;23;19928;-84
2022/05/17 00:15:12;;;;;;;;;;;;;;;14.39;76.90;101063.84;6184847;23;20230;-82
2022/05/17 00:17:38;;;;;;;;;;;;;;;14.43;76.96;101070.59;6189440;23;19927;-82
2022/05/17 00:20:03;;;;;;;;;;;;;;;14.45;77.10;101071.28;6210306;22;19908;-82
2022/05/17 00:22:29;;;;;;;;;;;;;;;14.47;77.15;101068.38;6210860;23;19933;-83
2022/05/17 00:24:54;;;;;;;;;;;;;;;14.51;77.19;101056.19;6224022;22;19919;-86
2022/05/17 00:27:20;;;;;;;;;;;;;;;14.48;77.26;101060.09;6208579;23;19923;-84
2022/05/17 00:29:48;;;;;;;;;;;;;;;14.46;77.29;101064.00;6207544;23;19916;-82
2022/05/17 00:32:14;;;;;;;;;;;;;;;14.41;77.51;101067.22;6208602;23;19922;-82
2022/05/17 00:34:39;;;;;;;;;;;;;;;14.44;77.36;101066.03;6196126;23;19964;-82
2022/05/17 00:37:05;;;;;;;;;;;;;;;14.39;77.51;101061.13;6209899;23;20267;-83
2022/05/17 00:39:33;;;;;;;;;;;;;;;14.36;77.37;101064.22;6207760;23;19969;-83
2022/05/17 00:41:59;;;;;;;;;;;;;;;14.40;77.14;101061.97;6206913;23;19966;-84
2022/05/17 00:44:42;;;;;;;;;;;;;;;14.37;77.23;101071.28;6182896;23;19912;-83
2022/05/17 00:47:24;;;;;;;;;;;;;;;14.35;77.26;101062.50;6186440;23;19969;-84
2022/05/17 00:50:25;;;;;;;;;;;;;;;14.30;77.35;101063.03;6207144;23;19912;-83
2022/05/17 00:52:53;;;;;;;;;;;;;;;14.30;77.10;101054.09;6092385;23;20444;-84
2022/05/17 00:55:31;;;;;;;;;;;;;;;14.27;77.14;101057.16;6160361;23;20332;-83
2022/05/17 00:58:03;;;;;;;;;;;;;;;14.22;77.20;101056.84;6183221;23;20316;-83
2022/05/17 01:00:30;;;;;;;;;;;;;;;14.23;77.00;101058.50;6185940;23;19912;-83
2022/05/17 01:02:59;;;;;;;;;;;;;;;14.22;77.08;101054.13;6183541;23;19912;-85
2022/05/17 01:05:25;;;;;;;;;;;;;;;14.21;76.74;101055.13;6181796;23;20011;-84
2022/05/17 01:07:54;;;;;;;;;;;;;;;14.15;76.98;101049.41;6182331;23;20332;-84
2022/05/17 01:10:20;;;;;;;;;;;;;;;14.15;76.87;101052.13;6207705;23;20286;-84
2022/05/17 01:14:57;;;;;;;;;;;;;;;14.17;77.35;101056.53;6186890;23;19912;-83
2022/05/17 01:15:30;;;;;;;;;;;;;;;14.12;76.79;101047.06;6212845;23;19935;-88
2022/05/17 01:17:56;;;;;;;;;;;;;;;14.14;76.62;101050.44;6192831;23;20349;-85
2022/05/17 01:20:32;;;;;;;;;;;;;;;14.13;76.44;101042.50;6216605;23;19923;-91
2022/05/17 01:23:00;;;;;;;;;;;;;;;14.10;76.42;101046.41;6193399;23;19906;-88
2022/05/17 01:25:26;;;;;;;;;;;;;;;14.09;76.19;101041.16;6227709;22;19994;-89
2022/05/17 01:27:53;;;;;;;;;;;;;;;14.05;76.19;101040.69;6194244;22;20390;-91
2022/05/17 01:30:20;;;;;;;;;;;;;;;14.03;76.03;101034.59;6184647;23;19915;-89
2022/05/17 01:32:45;;;;;;;;;;;;;;;14.02;76.11;101032.88;6192691;23;19912;-91
2022/05/17 01:35:14;;;;;;;;;;;;;;;13.90;76.49;101039.69;6206500;23;19911;-90
2022/05/17 01:37:39;;;;;;;;;;;;;;;13.92;76.26;101024.16;6211939;23;19942;-89
2022/05/17 01:40:05;;;;;;;;;;;;;;;13.95;76.25;101031.91;6208676;23;19912;-89
2022/05/17 01:42:30;;;;;;;;;;;;;;;13.96;75.75;101013.84;6184412;23;19916;-90
2022/05/17 01:45:06;;;;;;;;;;;;;;;13.92;76.00;101022.28;6184080;23;20325;-91
2022/05/17 01:47:35;;;;;;;;;;;;;;;13.93;76.07;101020.44;6185163;23;19973;-89
2022/05/17 01:50:01;;;;;;;;;;;;;;;13.86;76.56;101008.63;6212819;23;19920;-90
2022/05/17 01:52:27;;;;;;;;;;;;;;;13.87;76.89;101007.63;6181505;23;19912;-89
2022/05/17 01:54:55;;;;;;;;;;;;;;;13.86;76.93;101005.91;6208455;23;19912;-89
2022/05/17 01:57:23;;;;;;;;;;;;;;;13.81;77.25;101011.00;6208306;22;19912;-88
2022/05/17 01:59:52;;;;;;;;;;;;;;;13.80;77.41;101009.34;6183666;23;19939;-88
2022/05/17 02:02:19;;;;;;;;;;;;;;;13.83;77.63;101017.09;6209249;23;20036;-88
2022/05/17 02:04:48;;;;;;;;;;;;;;;13.81;77.54;101002.91;6211238;22;19981;-89
2022/05/17 02:07:17;;;;;;;;;;;;;;;13.72;78.00;101002.09;6209011;23;19959;-88
2022/05/17 02:09:42;;;;;;;;;;;;;;;13.71;78.36;100990.44;6214285;23;19912;-88
2022/05/17 02:12:10;;;;;;;;;;;;;;;13.71;78.30;100987.72;6225047;22;19908;-87
2022/05/17 02:14:38;;;;;;;;;;;;;;;13.71;78.25;100992.28;6213774;23;19908;-89
2022/05/17 02:17:03;;;;;;;;;;;;;;;13.68;78.25;100995.34;6216035;23;19911;-88
2022/05/17 02:19:29;;;;;;;;;;;;;;;13.72;78.04;100986.72;6201761;23;19942;-88
2022/05/17 02:21:55;;;;;;;;;;;;;;;13.64;78.58;100994.84;6190412;23;19912;-87
2022/05/17 02:24:22;;;;;;;;;;;;;;;13.66;78.25;100995.50;6217692;23;19939;-87
2022/05/17 02:26:49;;;;;;;;;;;;;;;13.70;78.29;100994.16;6231430;23;19912;-85
2022/05/17 02:29:16;;;;;;;;;;;;;;;13.72;78.21;100986.72;6207941;23;19927;-85
2022/05/17 02:31:41;;;;;;;;;;;;;;;13.75;77.82;100995.50;6183135;23;19956;-86
2022/05/17 02:34:10;;;;;;;;;;;;;;;13.74;78.18;100983.84;6207221;23;19923;-85
2022/05/17 02:36:35;;;;;;;;;;;;;;;13.70;78.40;100986.06;6201253;23;19912;-84
2022/05/17 02:39:04;;;;;;;;;;;;;;;13.73;78.05;100985.69;6182505;23;19993;-85
2022/05/17 02:41:29;;;;;;;;;;;;;;;13.64;78.40;100978.63;6181952;23;19952;-86
2022/05/17 02:43:54;;;;;;;;;;;;;;;13.71;78.19;100987.72;6184902;23;19965;-86
2022/05/17 02:46:20;;;;;;;;;;;;;;;13.67;78.70;100997.22;6207219;23;19912;-85
2022/05/17 02:48:46;;;;;;;;;;;;;;;13.63;78.84;100992.34;6207871;23;19912;-86
2022/05/17 02:51:13;;;;;;;;;;;;;;;13.60;78.96;100988.13;6182121;23;20000;-86
2022/05/17 02:53:38;;;;;;;;;;;;;;;13.45;79.05;100997.94;6207473;23;19916;-86
2022/05/17 02:56:06;;;;;;;;;;;;;;;13.46;79.02;100997.78;6212872;23;19960;-89
2022/05/17 02:58:34;;;;;;;;;;;;;;;13.35;79.38;100999.97;6193681;23;19911;-85
2022/05/17 03:01:00;;;;;;;;;;;;;;;13.38;79.29;100991.53;6206224;23;20344;-86
2022/05/17 03:03:26;;;;;;;;;;;;;;;13.42;79.26;100993.72;6206850;23;19908;-86
2022/05/17 03:05:52;;;;;;;;;;;;;;;13.26;79.53;100991.84;6208245;23;19990;-88
2022/05/17 03:08:28;;;;;;;;;;;;;;;13.34;79.34;100992.88;6182268;23;19943;-85
2022/05/17 03:10:55;;;;;;;;;;;;;;;13.33;79.62;100996.59;6209159;23;19923;-85
2022/05/17 03:13:21;;;;;;;;;;;;;;;13.45;79.05;100995.22;6181361;23;19926;-86
2022/05/17 03:15:58;;;;;;;;;;;;;;;13.41;78.64;101000.13;6207279;23;19911;-85
2022/05/17 03:18:24;;;;;;;;;;;;;;;13.48;78.49;101001.13;6183169;23;19986;-86
2022/05/17 03:20:52;;;;;;;;;;;;;;;13.44;78.61;100999.78;6207031;23;20365;-87
2022/05/17 03:23:18;;;;;;;;;;;;;;;13.40;78.70;100995.75;6185225;23;19911;-85
2022/05/17 03:25:43;;;;;;;;;;;;;;;13.29;79.31;100996.94;6188420;23;19918;-85
2022/05/17 03:28:11;;;;;;;;;;;;;;;13.32;79.30;100993.03;6194671;23;19915;-83
2022/05/17 03:30:37;;;;;;;;;;;;;;;13.46;79.05;101005.00;6211670;23;19912;-86
2022/05/17 03:33:04;;;;;;;;;;;;;;;13.59;78.51;101002.63;6182815;23;20190;-84
2022/05/17 03:35:29;;;;;;;;;;;;;;;13.63;78.42;101001.28;6185474;23;19911;-85
2022/05/17 03:37:55;;;;;;;;;;;;;;;13.74;78.02;101010.84;6214201;23;20352;-86
2022/05/17 03:40:20;;;;;;;;;;;;;;;13.70;78.19;101004.13;6182864;23;20257;-85
2022/05/17 03:42:46;;;;;;;;;;;;;;;13.81;78.04;101008.31;6207971;23;20357;-85
2022/05/17 03:45:12;;;;;;;;;;;;;;;13.86;77.95;101004.09;6184572;23;19920;-85
2022/05/17 03:47:39;;;;;;;;;;;;;;;13.99;77.36;101011.63;6182199;23;19916;-85
2022/05/17 03:50:05;;;;;;;;;;;;;;;14.01;77.33;101015.00;6182806;23;19912;-86
2022/05/17 03:52:32;;;;;;;;;;;;;;;13.95;77.56;101012.97;6183666;23;20030;-83
2022/05/17 03:54:58;;;;;;;;;;;;;;;13.99;77.61;101010.78;6183950;23;19956;-86
2022/05/17 03:57:26;;;;;;;;;;;;;;;14.13;76.67;101016.28;6183395;23;20311;-85
2022/05/17 03:59:51;;;;;;;;;;;;;;;14.11;76.94;101021.03;6186440;23;19918;-85
2022/05/17 04:02:22;;;;;;;;;;;;;;;14.22;76.47;101016.28;6187923;23;19912;-85
2022/05/17 04:04:47;;;;;;;;;;;;;;;14.22;76.88;101016.28;6221842;23;19919;-86
2022/05/17 04:07:12;;;;;;;;;;;;;;;14.33;76.56;101015.88;6208430;23;19998;-85
2022/05/17 04:09:40;;;;;;;;;;;;;;;14.36;76.45;101016.34;6182594;23;19937;-84
2022/05/17 04:12:06;;;;;;;;;;;;;;;14.41;76.49;101015.81;6217664;23;19907;-83
2022/05/17 04:14:31;;;;;;;;;;;;;;;14.57;76.28;101015.75;6217588;23;19930;-85
2022/05/17 04:16:57;;;;;;;;;;;;;;;14.66;75.90;101016.56;6216074;23;19912;-87
2022/05/17 04:19:40;;;;;;;;;;;;;;;14.65;76.25;101008.63;6191488;23;19920;-96
2022/05/17 04:28:17;;;;;;;;;;;;;;;15.38;75.05;101015.31;6237462;22;19937;-93
2022/05/17 04:30:45;;;;;;;;;;;;;;;15.86;74.28;101017.75;6228341;22;20272;-93
2022/05/17 04:33:13;;;;;;;;;;;;;;;16.05;71.37;101011.75;6214752;22;19923;-93
2022/05/17 04:35:57;;;;;;;;;;;;;;;16.48;70.42;101016.44;6193721;23;19908;-93
2022/05/17 04:38:25;;;;;;;;;;;;;;;16.95;68.88;101018.66;6205509;23;19912;-95
2022/05/17 04:40:51;;;;;;;;;;;;;;;17.08;66.29;101026.91;6195984;23;19937;-91
2022/05/17 04:43:22;;;;;;;;;;;;;;;17.42;66.67;101019.91;6195471;23;19927;-92
2022/05/17 04:45:51;;;;;;;;;;;;;;;17.71;65.58;101027.00;6194346;22;19982;-92
2022/05/17 04:48:35;;;;;;;;;;;;;;;17.99;64.36;101037.03;6192521;23;19912;-91
2022/05/17 04:51:08;;;;;;;;;;;;;;;18.12;64.29;101019.94;6188535;23;19918;-91
2022/05/17 04:53:33;;;;;;;;;;;;;;;18.54;63.03;101023.44;6192231;22;20328;-91
2022/05/17 04:56:05;;;;;;;;;;;;;;;18.91;62.54;101018.53;6213489;22;19912;-92
2022/05/17 04:58:30;;;;;;;;;;;;;;;19.30;61.46;101019.63;6188014;23;20330;-90
2022/05/17 05:01:08;;;;;;;;;;;;;;;19.67;60.66;101020.03;6193916;22;19907;-92
2022/05/17 05:03:36;;;;;;;;;;;;;;;19.86;58.54;101021.91;6189128;22;19912;-90
2022/05/17 05:06:05;;;;;;;;;;;;;;;20.32;57.75;101020.94;6214985;23;19912;-91
2022/05/17 05:08:33;;;;;;;;;;;;;;;20.54;56.95;101018.72;6191897;22;19965;-89
2022/05/17 05:10:58;;;;;;;;;;;;;;;20.68;55.63;101014.03;6190125;22;19916;-90
2022/05/17 05:13:27;;;;;;;;;;;;;;;21.01;55.53;101018.44;6213767;22;19981;-92
2022/05/17 05:15:56;;;;;;;;;;;;;;;21.23;55.01;101014.25;6218424;22;19994;-92
2022/05/17 05:18:43;;;;;;;;;;;;;;;21.57;54.74;101017.59;6189968;23;19951;-92
2022/05/17 05:21:12;;;;;;;;;;;;;;;21.98;53.72;101012.53;6221528;23;20305;-92
2022/05/17 05:23:38;;;;;;;;;;;;;;;22.33;52.51;101004.56;6215467;22;20321;-90
2022/05/17 05:26:15;;;;;;;;;;;;;;;22.65;51.68;100998.84;6216967;23;20053;-92
2022/05/17 05:28:41;;;;;;;;;;;;;;;23.08;49.80;101001.38;6217369;22;20160;-89
2022/05/17 05:31:12;;;;;;;;;;;;;;;23.44;49.06;101002.28;6190522;23;20284;-90
2022/05/17 05:33:49;;;;;;;;;;;;;;;23.35;49.12;101011.94;6190158;22;19947;-90
2022/05/17 05:39:32;;;;;;;;;;;;;;;23.45;49.20;101003.09;6252530;23;19941;-90
2022/05/17 05:42:01;;;;;;;;;;;;;;;23.36;49.11;101003.44;6243337;23;19911;-89
2022/05/17 05:44:29;;;;;;;;;;;;;;;23.24;48.91;100996.28;6193135;22;20363;-89
2022/05/17 05:46:55;;;;;;;;;;;;;;;23.21;48.55;100999.50;6253668;23;19921;-91
2022/05/17 05:49:23;;;;;;;;;;;;;;;23.41;49.97;100999.16;6255190;23;20279;-90
2022/05/17 05:51:48;;;;;;;;;;;;;;;23.59;48.92;100996.28;6234246;23;19917;-89
2022/05/17 05:54:14;;;;;;;;;;;;;;;23.69;48.17;100996.50;6227864;22;19915;-90
2022/05/17 05:56:39;;;;;;;;;;;;;;;23.89;48.37;100995.34;6196713;22;19916;-91
2022/05/17 05:59:05;;;;;;;;;;;;;;;23.88;47.29;100993.66;6223624;22;19916;-91
2022/05/17 06:01:30;;;;;;;;;;;;;;;24.13;47.07;100991.47;6201321;22;19912;-91
2022/05/17 06:03:55;;;;;;;;;;;;;;;24.39;46.96;100994.72;6196353;22;19915;-89
2022/05/17 06:06:30;;;;;;;;;;;;;;;24.41;46.16;100992.56;6191023;23;19959;-90
2022/05/17 06:08:55;;;;;;;;;;;;;;;24.57;45.54;100993.75;6216559;23;20336;-90
2022/05/17 06:11:46;;;;;;;;;;;;;;;24.66;45.88;100991.44;6192433;22;20016;-90
2022/05/17 06:23:35;;;;;;;;;;;;;;;25.50;43.54;100999.75;6245484;22;19912;-89
2022/05/17 06:38:41;;;;;;;;;;;;;;;26.87;42.26;101001.75;6260190;22;19912;-89
2022/05/17 06:47:40;;;;;;;;;;;;;;;27.92;39.31;100996.50;6212388;23;19985;-91
2022/05/17 06:50:11;;;;;;;;;;;;;;;28.04;39.27;100999.03;6186413;23;20234;-90
2022/05/17 06:55:41;;;;;;;;;;;;;;;28.20;35.07;100986.09;6212275;23;19980;-92
2022/05/17 06:58:11;;;;;;;;;;;;;;;28.29;36.68;100987.25;6188961;23;19899;-93
2022/05/17 07:00:36;;;;;;;;;;;;;;;28.36;35.99;100987.81;6213818;23;19959;-93
2022/05/17 07:03:02;;;;;;;;;;;;;;;28.65;36.15;100984.59;6186357;23;19912;-93
2022/05/17 07:05:32;;;;;;;;;;;;;;;28.87;36.78;100986.28;6190295;23;19912;-96
2022/05/17 07:08:00;;;;;;;;;;;;;;;29.14;36.24;100984.09;6162946;23;19923;-95
2022/05/17 07:13:13;;;;;;;;;;;;;;;29.38;35.69;100984.34;6195387;23;19927;-95
2022/05/17 07:15:42;;;;;;;;;;;;;;;29.54;34.70;100982.38;6163089;23;19987;-95
2022/05/17 07:18:10;;;;;;;;;;;;;;;29.99;33.76;100977.88;6163894;23;20324;-96
2022/05/17 07:20:38;;;;;;;;;;;;;;;30.37;32.71;100983.81;6169115;23;19934;-96
2022/05/17 07:23:07;;;;;;;;;;;;;;;30.67;32.56;100976.38;6169237;23;19978;-96
2022/05/17 07:25:33;;;;;;;;;;;;;;;30.95;32.95;100982.31;6180255;23;19937;-96
2022/05/17 07:28:03;;;;;;;;;;;;;;;30.89;32.52;100979.59;6180877;22;19939;-94
2022/05/17 07:30:29;;;;;;;;;;;;;;;31.27;31.90;100979.81;6187695;22;19904;-95
2022/05/17 07:32:54;;;;;;;;;;;;;;;31.17;32.19;100981.88;6201060;23;19916;-96
2022/05/17 07:35:23;;;;;;;;;;;;;;;31.55;31.74;100974.56;6191238;23;20277;-96
2022/05/17 07:37:49;;;;;;;;;;;;;;;31.94;31.28;100976.34;6194294;22;19900;-96
2022/05/17 07:40:15;;;;;;;;;;;;;;;31.91;31.59;100972.22;6212580;22;19943;-96
2022/05/17 07:42:40;;;;;;;;;;;;;;;32.26;30.60;100978.44;6186607;23;19924;-96
2022/05/17 07:45:09;;;;;;;;;;;;;;;32.47;30.51;100983.72;6216242;23;19993;-92
2022/05/17 07:47:37;;;;;;;;;;;;;;;32.74;29.85;100977.53;6215144;23;19955;-94
2022/05/17 07:50:03;;;;;;;;;;;;;;;32.67;29.87;100971.50;6211081;23;19972;-95
2022/05/17 07:52:34;;;;;;;;;;;;;;;32.90;30.27;100981.72;6210756;23;19951;-96
2022/05/17 07:55:03;;;;;;;;;;;;;;;33.33;29.99;100987.13;6217193;23;19916;-94
2022/05/17 07:57:38;;;;;;;;;;;;;;;33.50;30.50;100983.72;6186760;23;19910;-95
2022/05/17 08:00:07;;;;;;;;;;;;;;;33.56;29.45;100984.47;6216291;23;19930;-95
2022/05/17 08:02:42;;;;;;;;;;;;;;;33.43;29.06;100984.16;6200024;23;19920;-96
2022/05/17 08:05:13;;;;;;;;;;;;;;;33.55;29.57;100966.94;6219027;23;19980;-96
2022/05/17 08:07:39;;;;;;;;;;;;;;;33.70;29.66;100976.16;6207471;23;19950;-94
2022/05/17 08:10:04;;;;;;;;;;;;;;;34.17;28.11;100982.47;6228747;23;19912;-94
2022/05/17 08:12:30;;;;;;;;;;;;;;;34.30;27.20;100975.19;6232249;23;19922;-93
2022/05/17 08:14:58;;;;;;;;;;;;;;;33.93;27.28;100971.50;6210978;23;19904;-93
2022/05/17 08:17:30;;;;;;;;;;;;;;;33.88;25.86;100972.44;6207570;23;19916;-93
2022/05/17 08:19:57;;;;;;;;;;;;;;;34.38;25.09;100964.13;6223375;23;19915;-94
2022/05/17 08:22:23;;;;;;;;;;;;;;;35.00;24.19;100969.03;6215623;23;19908;-95
2022/05/17 08:27:49;;;;;;;;;;;;;;;35.22;23.17;100959.84;6236882;23;19911;-93
2022/05/17 08:30:19;;;;;;;;;;;;;;;35.37;23.18;100950.22;6211531;22;19924;-91
2022/05/17 08:35:39;;;;;;;;;;;;;;;36.39;21.44;100949.25;6236127;22;19971;-90
2022/05/17 08:38:04;;;;;;;;;;;;;;;36.51;21.56;100955.00;6229733;22;19912;-93
2022/05/17 08:40:30;;;;;;;;;;;;;;;36.81;21.16;100951.53;6208736;22;19956;-93
2022/05/17 08:43:03;;;;;;;;;;;;;;;36.31;21.05;100945.25;6240555;23;19995;-93
2022/05/17 08:45:33;;;;;;;;;;;;;;;36.83;21.12;100943.63;6204398;23;19942;-94
2022/05/17 08:48:01;;;;;;;;;;;;;;;37.20;21.79;100944.06;6213387;23;19915;-94
2022/05/17 08:50:27;;;;;;;;;;;;;;;36.78;23.59;100944.63;6216974;22;19915;-93
2022/05/17 08:52:53;;;;;;;;;;;;;;;35.96;24.98;100941.56;6232088;23;19912;-92
2022/05/17 08:55:40;;;;;;;;;;;;;;;35.76;25.54;100943.03;6197956;23;19912;-92
2022/05/17 08:58:14;;;;;;;;;;;;;;;36.64;24.08;100944.00;6227239;22;20961;-94
2022/05/17 09:00:44;;;;;;;;;;;;;;;36.45;24.30;100949.91;6196306;23;19916;-92
2022/05/17 09:03:09;;;;;;;;;;;;;;;36.15;24.48;100949.69;6247914;23;19915;-93
2022/05/17 09:05:40;;;;;;;;;;;;;;;36.32;23.94;100957.31;6245248;23;19918;-90
2022/05/17 09:08:14;;;;;;;;;;;;;;;35.65;25.06;100947.25;6219446;22;19912;-94
2022/05/17 09:11:04;;;;;;;;;;;;;;;36.05;23.99;100947.19;6220878;22;20050;-91
2022/05/17 09:13:50;;;;;;;;;;;;;;;35.85;24.35;100957.84;6219672;22;20287;-93
2022/05/17 09:16:15;;;;;;;;;;;;;;;36.51;23.79;100948.59;6235939;23;19923;-94
2022/05/17 09:18:44;;;;;;;;;;;;;;;37.47;22.63;100951.25;6196061;22;19911;-91
2022/05/17 09:21:28;;;;;;;;;;;;;;;38.11;22.22;100941.88;6216875;23;20005;-91
2022/05/17 09:23:56;;;;;;;;;;;;;;;38.15;21.99;100949.25;6245710;23;19972;-91
2022/05/17 09:26:21;;;;;;;;;;;;;;;38.54;21.24;100941.56;6245890;23;19918;-93
2022/05/17 09:29:08;;;;;;;;;;;;;;;37.82;22.35;100939.88;6248284;23;19927;-89
2022/05/17 09:31:36;;;;;;;;;;;;;;;38.67;21.76;100936.78;6240340;22;19936;-90
2022/05/17 09:34:03;;;;;;;;;;;;;;;39.96;20.52;100932.81;6254857;22;19916;-90
2022/05/17 09:36:33;;;;;;;;;;;;;;;40.63;19.38;100932.41;6246263;23;19916;-92
2022/05/17 09:38:58;;;;;;;;;;;;;;;41.08;18.79;100934.88;6220193;23;19912;-90
2022/05/17 09:41:34;;;;;;;;;;;;;;;41.62;18.50;100922.19;6267706;22;19927;-91
2022/05/17 09:44:23;;;;;;;;;;;;;;;41.95;17.83;100926.56;6217029;23;19931;-92
2022/05/17 09:46:49;;;;;;;;;;;;;;;42.12;17.34;100926.22;6200279;23;20329;-90
2022/05/17 09:55:09;;;;;;;;;;;;;;;41.09;18.84;100915.97;6212890;23;19919;-92
2022/05/17 09:57:35;;;;;;;;;;;;;;;41.91;18.21;100914.38;6212111;23;19915;-90
2022/05/17 10:00:08;;;;;;;;;;;;;;;40.03;19.51;100912.50;6214133;23;19907;-92
2022/05/17 10:02:35;;;;;;;;;;;;;;;39.95;19.34;100913.47;6209727;23;19908;-89
2022/05/17 10:05:09;;;;;;;;;;;;;;;39.55;20.67;100916.97;6210851;23;20285;-91
2022/05/17 10:07:35;;;;;;;;;;;;;;;39.84;20.26;100913.13;6209789;23;19916;-90
2022/05/17 10:10:06;;;;;;;;;;;;;;;38.92;21.29;100914.44;6185169;23;19987;-92
2022/05/17 10:12:33;;;;;;;;;;;;;;;39.13;21.09;100917.19;6211419;23;20376;-88
2022/05/17 10:15:03;;;;;;;;;;;;;;;38.19;22.75;100912.91;6208844;23;19912;-90
2022/05/17 10:17:59;;;;;;;;;;;;;;;39.45;20.78;100915.47;6184033;23;20321;-89
2022/05/17 10:20:29;;;;;;;;;;;;;;;39.18;20.62;100909.31;6194326;23;20007;-87
2022/05/17 10:22:54;;;;;;;;;;;;;;;39.10;21.06;100907.44;6210873;23;19999;-89
2022/05/17 10:25:38;;;;;;;;;;;;;;;38.85;21.28;100918.59;6209528;23;19912;-87
2022/05/17 10:28:13;;;;;;;;;;;;;;;39.85;19.96;100909.97;6209958;23;19915;-88
2022/05/17 10:30:41;;;;;;;;;;;;;;;39.71;20.43;100915.09;6220206;23;19950;-89
2022/05/17 10:33:07;;;;;;;;;;;;;;;38.54;21.76;100915.44;6234492;22;19952;-89
2022/05/17 10:35:34;;;;;;;;;;;;;;;38.55;20.91;100908.66;6212092;23;19912;-90
2022/05/17 10:38:18;;;;;;;;;;;;;;;38.78;20.83;100903.50;6212355;23;19919;-86
2022/05/17 10:40:46;;;;;;;;;;;;;;;38.74;20.78;100903.34;6189286;23;19912;-87
2022/05/17 10:43:15;;;;;;;;;;;;;;;36.71;22.77;100897.53;6205159;22;19943;-88
2022/05/17 10:45:40;;;;;;;;;;;;;;;35.57;24.71;100897.72;6235466;23;19904;-86
2022/05/17 10:48:09;;;;;;;;;;;;;;;34.75;26.33;100891.53;6213047;22;19990;-87
2022/05/17 10:50:53;;;;;;;;;;;;;;;32.98;29.27;100899.44;6208921;23;19981;-88
2022/05/17 10:53:37;;;;;;;;;;;;;;;33.45;28.66;100886.28;6210568;23;20428;-90
2022/05/17 10:56:21;;;;;;;;;;;;;;;32.25;30.45;100885.00;6210922;23;19911;-88
2022/05/17 10:58:48;;;;;;;;;;;;;;;31.74;31.58;100882.91;6218687;23;19912;-90
2022/05/17 11:01:19;;;;;;;;;;;;;;;32.24;30.79;100879.75;6223488;23;19915;-88
2022/05/17 11:03:44;;;;;;;;;;;;;;;31.78;31.06;100880.38;6211738;23;20378;-91
2022/05/17 11:06:18;;;;;;;;;;;;;;;31.92;30.54;100872.97;6217569;23;19916;-89
2022/05/17 11:08:52;;;;;;;;;;;;;;;31.60;31.14;100874.47;6187417;23;19916;-89
2022/05/17 11:11:30;;;;;;;;;;;;;;;31.31;31.64;100872.56;6214006;23;19968;-88
2022/05/17 11:14:00;;;;;;;;;;;;;;;30.57;32.89;100865.50;6213579;23;19918;-92
2022/05/17 11:16:33;;;;;;;;;;;;;;;30.29;34.16;100862.38;6231385;23;19919;-89
2022/05/17 11:19:01;;;;;;;;;;;;;;;30.22;34.45;100859.06;6198914;23;19935;-89
2022/05/17 11:21:27;;;;;;;;;;;;;;;29.83;34.75;100865.44;6189112;23;19919;-89
2022/05/17 11:24:00;;;;;;;;;;;;;;;29.40;35.50;100862.22;6208573;23;19912;-90
2022/05/17 11:26:46;;;;;;;;;;;;;;;29.13;36.62;100862.59;6208507;23;19912;-88
2022/05/17 11:29:12;;;;;;;;;;;;;;;28.68;37.20;100850.44;6186274;23;19977;-88
2022/05/17 11:31:56;;;;;;;;;;;;;;;28.16;38.43;100857.84;6213000;23;19911;-91
2022/05/17 11:34:31;;;;;;;;;;;;;;;27.78;39.22;100857.16;6231690;23;19919;-94
2022/05/17 11:36:58;;;;;;;;;;;;;;;27.90;39.54;100854.19;6187478;23;20309;-91
2022/05/17 11:39:29;;;;;;;;;;;;;;;28.34;39.33;100860.09;6184050;23;20289;-90
2022/05/17 11:42:04;;;;;;;;;;;;;;;28.44;39.33;100852.91;6216108;23;19912;-89
2022/05/17 11:44:33;;;;;;;;;;;;;;;28.57;38.57;100852.41;6227564;23;19920;-91
2022/05/17 11:46:59;;;;;;;;;;;;;;;28.08;40.39;100844.56;6215003;23;20329;-89
2022/05/17 11:49:28;;;;;;;;;;;;;;;28.01;40.42;100839.31;6218580;23;19926;-89
2022/05/17 11:51:56;;;;;;;;;;;;;;;28.26;40.74;100846.81;6212811;23;19961;-88
2022/05/17 11:54:42;;;;;;;;;;;;;;;28.53;40.79;100848.53;6210650;23;19911;-90
2022/05/17 11:57:17;;;;;;;;;;;;;;;28.21;41.03;100835.72;6213465;23;19939;-87
2022/05/17 11:59:43;;;;;;;;;;;;;;;27.79;42.46;100828.44;6215237;23;19912;-91
2022/05/17 12:02:10;;;;;;;;;;;;;;;27.72;42.28;100830.63;6216876;23;19912;-88
2022/05/17 12:04:39;;;;;;;;;;;;;;;27.94;42.26;100828.50;6214877;23;19961;-87
2022/05/17 12:07:27;;;;;;;;;;;;;;;27.88;42.04;100824.06;6213083;23;20348;-90
2022/05/17 12:09:54;;;;;;;;;;;;;;;28.02;41.88;100813.31;6211863;23;19916;-90
2022/05/17 12:12:32;;;;;;;;;;;;;;;27.95;42.39;100816.34;6209905;23;19980;-88
2022/05/17 12:15:11;;;;;;;;;;;;;;;27.74;42.66;100812.66;6211396;23;19912;-86
2022/05/17 12:17:42;;;;;;;;;;;;;;;27.71;42.80;100806.88;6226540;23;19919;-91
2022/05/17 12:20:20;;;;;;;;;;;;;;;27.49;42.92;100810.69;6232989;23;19922;-89
2022/05/17 12:22:50;;;;;;;;;;;;;;;26.94;44.39;100799.06;6235078;23;20312;-91
2022/05/17 12:25:28;;;;;;;;;;;;;;;26.91;44.21;100802.34;6233571;23;19915;-90
2022/05/17 12:27:53;;;;;;;;;;;;;;;26.50;45.30;100801.19;6232972;23;19983;-88
2022/05/17 12:33:23;;;;;;;;;;;;;;;26.50;45.45;100792.94;6218588;23;19957;-90
2022/05/17 12:35:49;;;;;;;;;;;;;;;26.27;45.49;100789.47;6199608;23;19920;-90
2022/05/17 12:44:08;;;;;;;;;;;;;;;25.33;47.61;100785.09;6219652;23;19937;-91
2022/05/17 12:46:35;;;;;;;;;;;;;;;25.16;48.26;100789.81;6219918;23;20332;-91
2022/05/17 12:49:02;;;;;;;;;;;;;;;24.78;49.24;100773.06;6212901;23;19919;-91
2022/05/17 12:51:28;;;;;;;;;;;;;;;24.86;49.11;100780.06;6216406;23;19962;-91
2022/05/17 12:54:03;;;;;;;;;;;;;;;24.79;49.10;100771.16;6212577;22;19916;-90
2022/05/17 12:56:44;;;;;;;;;;;;;;;24.63;49.68;100772.84;6210396;23;19912;-93
2022/05/17 12:59:10;;;;;;;;;;;;;;;24.83;49.25;100770.41;6188161;23;19912;-93
2022/05/17 13:01:42;;;;;;;;;;;;;;;24.86;48.97;100769.06;6186007;23;19912;-89
2022/05/17 13:04:12;;;;;;;;;;;;;;;25.08;47.85;100762.78;6201825;23;19923;-90
2022/05/17 13:06:44;;;;;;;;;;;;;;;24.57;48.84;100755.44;6198511;23;19931;-90
2022/05/17 13:09:19;;;;;;;;;;;;;;;24.54;48.84;100749.63;6225996;23;19919;-90
2022/05/17 13:11:44;;;;;;;;;;;;;;;24.54;48.63;100752.38;6220894;23;19989;-90
2022/05/17 13:14:25;;;;;;;;;;;;;;;24.24;48.79;100748.03;6188270;23;19911;-91
2022/05/17 13:16:54;;;;;;;;;;;;;;;23.77;49.67;100751.06;6211419;23;20277;-92
2022/05/17 13:19:20;;;;;;;;;;;;;;;23.76;49.97;100739.25;6187510;23;19908;-92
2022/05/17 13:21:54;;;;;;;;;;;;;;;23.95;49.77;100744.50;6208985;23;19931;-92
2022/05/17 13:24:26;;;;;;;;;;;;;;;24.02;49.46;100734.19;6184930;23;19914;-90
2022/05/17 13:26:59;;;;;;;;;;;;;;;24.14;48.87;100723.97;6220554;23;19919;-91
2022/05/17 13:29:29;;;;;;;;;;;;;;;24.26;48.84;100725.81;6214413;23;20337;-92
2022/05/17 13:31:56;;;;;;;;;;;;;;;24.41;48.30;100723.28;6185622;23;19912;-90
2022/05/17 13:34:48;;;;;;;;;;;;;;;24.39;47.75;100733.69;6215805;23;19937;-89
2022/05/17 13:37:17;;;;;;;;;;;;;;;24.41;46.84;100713.13;6192706;23;20344;-93
2022/05/17 13:39:44;;;;;;;;;;;;;;;24.32;47.10;100724.78;6210976;23;19976;-89
2022/05/17 13:42:31;;;;;;;;;;;;;;;24.05;47.67;100719.97;6213565;23;19912;-91
2022/05/17 13:45:08;;;;;;;;;;;;;;;24.20;47.62;100711.97;6254515;22;19940;-91
2022/05/17 13:47:39;;;;;;;;;;;;;;;24.14;46.28;100712.13;6230641;22;19924;-90
2022/05/17 13:50:08;;;;;;;;;;;;;;;24.23;45.47;100707.91;6191261;23;19916;-90
2022/05/17 13:52:35;;;;;;;;;;;;;;;24.25;45.73;100711.22;6245569;23;19945;-91